Latest Coastal Weather Observations for Carnarvon

IDW60701

Issued at 4:23 pm WST Wednesday 28 September 2016 (issued every 10 minutes, with the page automatically refreshed every 10 minutes)

About coastal observations | Map of coastal stations | Coastal observations for WA | Marine services | Other Formats
Station Details ID: 006011 Name: CARNARVON AIRPORT Lat: -24.89 Lon: 113.67 Height: 4.0 m
Data from the previous 72 hours. | See also: Recent months at Carnarvon
Date/Time
WST
Temp
°C
Wind Pressure Rain since
9am
mm
Weather Cloud Vis
km
Sea
Height
m
Swell
Dir  Spd
kts
Gust
kts
hPa Trend Height
m
Period
s
Dir
28/04:00pm 21.7 S 19 24 1015.8 - 0.0 - - 10 - - - -
28/03:30pm 21.2 S 21 25 1016.0 - 0.0 - - 10 - - - -
28/03:00pm 21.5 S 22 28 1016.4 - 0.0 - - 10 - - - -
28/02:30pm 20.7 S 22 28 1016.8 - 0.0 - - 10 - - - -
28/02:00pm 20.9 S 21 27 1017.0 - 0.0 - - 10 - - - -
28/01:30pm 20.9 S 20 26 1017.5 - 0.0 - - 10 - - - -
28/01:17pm 21.2 S 17 29 1017.6 - 0.0 - - 10 - - - -
28/01:00pm 22.8 SE 13 19 1017.9 - 0.0 - - 10 - - - -
28/12:38pm 23.2 SE 15 25 1018.3 - 0.0 - - 10 - - - -
28/12:30pm 22.2 SE 15 22 1018.5 - 0.0 - - 10 - - - -
28/12:00pm 22.4 SE 17 23 1019.0 - 0.0 - - 10 - - - -
28/11:44am 22.0 SSE 18 28 1019.3 - 0.0 - - 10 - - - -
28/11:30am 21.6 SE 17 25 1019.4 - 0.0 - - 10 - - - -
28/11:00am 20.4 SE 22 29 1019.9 - 0.0 - - 10 - - - -
28/10:30am 19.6 SE 20 33 1020.2 - 0.0 - - 10 - - - -
28/10:17am 19.7 SSE 20 30 1020.4 - 0.0 - - 10 - - - -
28/10:00am 19.0 SE 22 29 1020.6 - 0.0 - - 10 - - - -
28/09:30am 18.0 SE 24 30 1020.7 - 0.0 - - 10 - - - -
28/09:00am 17.5 SE 23 30 1020.8 - 0.0 - - 10 - - - -
28/08:30am 17.1 SE 24 32 1020.7 - 0.0 - - 10 - - - -
28/08:04am 16.5 SE 22 32 1020.5 - 0.0 - - 10 - - - -
28/08:00am 16.6 SE 21 29 1020.4 - 0.0 - - 10 - - - -
28/07:30am 15.9 SE 17 24 1020.2 - 0.0 - - 10 - - - -
28/07:00am 15.1 SE 17 22 1019.8 - 0.0 - - 10 - - - -
28/06:30am 14.4 SE 16 21 1019.2 - 0.0 - - 10 - - - -
28/06:00am 14.5 SE 16 23 1018.9 - 0.0 - - 10 - - - -
28/05:30am 15.1 SE 19 26 1018.4 - 0.0 - Partly cloudy 10 - - - -
28/05:00am 15.4 SSE 17 23 1018.0 - 0.0 - Partly cloudy 10 - - - -
28/04:48am 15.9 SSE 18 28 1017.8 - 0.0 - Partly cloudy 10 - - - -
28/04:30am 16.4 SSE 19 27 1017.5 - 0.0 - Partly cloudy 10 - - - -
28/04:00am 16.5 SSE 19 29 1017.2 - 0.0 - Cloudy 10 - - - -
28/03:53am 16.5 SSE 19 29 1017.2 - 0.0 - Cloudy 10 - - - -
28/03:30am 16.3 SSE 17 22 1017.3 - 0.0 - Partly cloudy 10 - - - -
28/03:00am 16.6 SSE 16 25 1017.4 - 0.0 - Mostly cloudy 10 - - - -
28/02:30am 16.7 SSE 17 27 1017.3 - 0.0 - Partly cloudy 10 - - - -
28/02:25am 16.9 SSE 17 27 1017.3 - 0.0 - Partly cloudy 10 - - - -
28/02:00am 17.3 S 18 22 1017.4 - 0.0 - Partly cloudy 10 - - - -
28/01:43am 16.9 S 15 25 1017.4 - 0.0 - - 10 - - - -
28/01:30am 16.4 SSE 11 15 1017.7 - 0.0 - - 10 - - - -
28/01:00am 16.3 SSE 9 14 1017.9 - 0.0 - - 10 - - - -
28/12:30am 16.4 S 9 11 1017.8 - 0.0 - Partly cloudy 10 - - - -
28/12:00am 17.0 S 14 18 1017.9 - 0.0 - - 10 - - - -
 
Date/Time
WST
Temp
°C
Wind Pressure Rain since
9am
mm
Weather Cloud Vis
km
Sea
Height
m
Swell
Dir  Spd
kts
Gust
kts
hPa Trend Height
m
Period
s
Dir
27/11:30pm 17.1 S 13 17 1018.0 - 0.0 - - 10 - - - -
27/11:00pm 17.6 S 14 17 1018.2 - 0.0 - Partly cloudy 10 - - - -
27/10:30pm 17.3 SSE 10 12 1018.3 - 0.0 - - 10 - - - -
27/10:00pm 17.4 SSE 10 13 1018.3 - 0.0 - Partly cloudy 10 - - - -
27/09:30pm 17.3 SSE 9 11 1018.4 - 0.0 - Partly cloudy 10 - - - -
27/09:00pm 17.9 S 12 16 1018.3 - 0.0 - Mostly clear 10 - - - -
27/08:30pm 18.6 S 17 24 1018.1 - 0.0 - Partly cloudy 10 - - - -
27/08:00pm 18.6 S 17 24 1018.0 - 0.0 - - 10 - - - -
27/07:30pm 18.8 S 19 25 1017.7 - 0.0 - - 10 - - - -
27/07:00pm 18.9 S 17 24 1017.2 - 0.0 - - 10 - - - -
27/06:30pm 19.2 S 19 25 1016.9 - 0.0 - Partly cloudy 10 - - - -
27/06:00pm 19.4 SSW 20 26 1016.6 - 0.0 - - 10 - - - -
27/05:30pm 19.7 SSW 23 29 1016.3 - 0.0 - - 10 - - - -
27/05:00pm 20.2 SSW 22 27 1016.1 - 0.0 - - 10 - - - -
27/04:30pm 20.5 SSW 22 28 1016.0 - 0.0 - - 10 - - - -
27/04:00pm 20.7 SSW 21 28 1016.0 - 0.0 - - 10 - - - -
27/03:30pm 21.6 SSW 19 26 1016.0 - 0.0 - - 10 - - - -
27/03:00pm 21.1 S 17 22 1016.1 - 0.0 Fine Clear 27 - - - -
27/02:30pm 21.1 S 19 25 1016.2 - 0.0 - - 10 - - - -
27/02:00pm 21.1 SSW 17 21 1016.4 - 0.0 - - 10 - - - -
27/01:30pm 21.9 S 18 21 1016.7 - 0.0 - - 10 - - - -
27/01:00pm 20.4 S 19 23 1017.0 - 0.0 - - 10 - - - -
27/12:30pm 21.5 S 19 24 1017.2 - 0.0 - - 10 - - - -
27/12:00pm 21.0 S 20 26 1017.4 - 0.0 - - 10 - - - -
27/11:30am 20.5 S 20 25 1017.6 - 0.0 - - 10 - - - -
27/11:00am 21.9 S 19 25 1017.8 - 0.0 - - 10 - - - -
27/10:30am 21.5 S 17 22 1018.2 - 0.0 - - 10 - - - -
27/10:00am 20.6 S 17 22 1018.3 - 0.0 - - 10 - - - -
27/09:30am 20.4 SSE 16 21 1018.5 - 0.0 - - 10 - - - -
27/09:00am 19.3 SSE 17 21 1018.9 - 0.0 - - 10 - - - -
27/08:30am 18.3 SSE 16 20 1018.9 - 0.0 - - 10 - - - -
27/08:00am 16.9 SE 15 20 1018.7 - 0.0 - - 10 - - - -
27/07:30am 15.4 SSE 15 19 1018.6 - 0.0 - - 10 - - - -
27/07:00am 14.5 SE 11 15 1018.3 - 0.0 - - 10 - - - -
27/06:30am 13.7 SE 10 13 1018.0 - 0.0 - - 10 - - - -
27/06:00am 13.7 SSE 11 15 1017.8 - 0.0 - - 10 - - - -
27/05:30am 14.1 SSE 13 17 1017.4 - 0.0 - - 10 - - - -
27/05:00am 14.5 SSE 13 17 1017.2 - 0.0 - - 10 - - - -
27/04:30am 14.8 SSE 13 17 1017.2 - 0.0 - - 10 - - - -
27/04:00am 15.1 SSE 13 17 1017.1 - 0.0 - - 10 - - - -
27/03:30am 15.2 SSE 13 18 1017.1 - 0.0 - - 10 - - - -
27/03:00am 15.3 SSE 13 18 1017.1 - 0.0 - - 10 - - - -
27/02:30am 15.6 S 16 22 1017.1 - 0.0 - - 10 - - - -
27/02:00am 15.8 S 17 23 1017.4 - 0.0 - - 10 - - - -
27/01:30am 15.8 S 17 23 1017.7 - 0.0 - - 10 - - - -
27/01:00am 16.0 S 17 22 1017.9 - 0.0 - - 10 - - - -
27/12:30am 16.3 S 16 22 1018.1 - 0.0 - - 10 - - - -
27/12:00am 16.7 S 17 21 1018.3 - 0.0 - - 10 - - - -
 
Date/Time
WST
Temp
°C
Wind Pressure Rain since
9am
mm
Weather Cloud Vis
km
Sea
Height
m
Swell
Dir  Spd
kts
Gust
kts
hPa Trend Height
m
Period
s
Dir
26/11:30pm 16.9 S 16 21 1018.6 - 0.0 - - 10 - - - -
26/11:00pm 16.9 S 16 23 1018.7 - 0.0 - - 10 - - - -
26/10:30pm 17.0 S 16 21 1018.7 - 0.0 - - 10 - - - -
26/10:00pm 17.1 S 16 21 1018.7 - 0.0 - - 10 - - - -
26/09:30pm 17.5 S 16 21 1018.7 - 0.0 - - 10 - - - -
26/09:00pm 17.8 S 19 26 1018.4 - 0.0 - - 10 - - - -
26/08:30pm 18.1 S 20 27 1018.1 - 0.0 - - 10 - - - -
26/08:00pm 18.5 S 22 30 1017.9 - 0.0 - - 10 - - - -
26/07:30pm 18.8 S 21 27 1017.5 - 0.0 - - 10 - - - -
26/07:00pm 19.0 S 20 27 1017.3 - 0.0 - - 10 - - - -
26/06:30pm 19.0 SSW 22 28 1017.0 - 0.0 - - 10 - - - -
26/06:00pm 19.4 SSW 21 29 1016.5 - 0.0 - - 10 - - - -
26/05:30pm 20.1 SSW 21 28 1016.4 - 0.0 - - 10 - - - -
26/05:00pm 20.6 SSW 22 29 1016.2 - 0.0 - - 10 - - - -
26/04:30pm 21.2 SSW 20 27 1016.2 - 0.0 - - 10 - - - -
26/04:00pm 21.5 S 21 27 1016.0 - 0.0 - - 10 - - - -
26/03:30pm 22.8 S 23 28 1015.9 - 0.0 - - 10 - - - -
26/03:00pm 22.3 S 22 28 1015.9 - 0.0 Fine Clear 27 - - - -
26/02:30pm 22.1 S 23 27 1016.2 - 0.0 - - 10 - - - -
26/02:00pm 21.4 S 23 28 1016.5 - 0.0 - - 10 - - - -
26/01:30pm 21.4 S 22 27 1016.8 - 0.0 - - 10 - - - -
26/01:00pm 20.8 S 22 27 1017.2 - 0.0 - - 10 - - - -
26/12:30pm 22.0 S 19 24 1017.6 - 0.0 - - 10 - - - -
26/12:00pm 22.3 S 15 19 1018.0 - 0.0 - - 10 - - - -
26/11:30am 21.7 S 15 21 1018.5 - 0.0 - - 10 - - - -
26/11:00am 20.7 S 16 22 1019.0 - 0.0 - - 10 - - - -
26/10:30am 20.4 S 19 23 1019.4 - 0.0 - - 10 - - - -
26/10:00am 19.9 S 16 22 1019.7 - 0.0 - - 10 - - - -
26/09:30am 18.8 S 18 23 1019.6 - 0.0 - - 10 - - - -
26/09:00am 18.4 SSE 17 22 1019.8 - 0.0 - - 10 - - - -
26/08:30am 17.0 SSE 19 24 1019.6 - 0.0 - - 10 - - - -
26/08:00am 16.7 SSE 18 24 1019.4 - 0.0 - - 10 - - - -
26/07:30am 16.2 SSE 18 23 1019.2 - 0.0 - - 10 - - - -
26/07:00am 15.2 SSE 13 17 1019.0 - 0.0 - - 10 - - - -
26/06:30am 14.1 SSE 11 14 1018.7 - 0.0 - - 10 - - - -
26/06:00am 14.1 SSE 12 15 1018.4 - 0.0 - - 10 - - - -
26/05:30am 14.8 SSE 15 19 1018.0 - 0.0 - - 10 - - - -
26/05:00am 14.9 SSE 15 20 1017.6 - 0.0 - - 10 - - - -
26/04:30am 14.8 S 16 21 1017.3 - 0.0 - - 10 - - - -
26/04:00am 15.1 S 17 22 1017.0 - 0.0 - - 10 - - - -
26/03:30am 15.6 S 18 24 1017.0 - 0.0 - - 10 - - - -
26/03:00am 16.0 S 15 20 1017.0 - 0.0 - - 10 - - - -
26/02:30am 16.0 S 15 20 1017.0 - 0.0 - - 10 - - - -
26/02:00am 16.2 SSE 16 21 1017.0 - 0.0 - - 10 - - - -
26/01:30am 16.2 S 15 21 1017.1 - 0.0 - - 10 - - - -
26/01:00am 16.3 S 15 21 1017.2 - 0.0 - - 10 - - - -
26/12:30am 16.7 S 17 22 1017.3 - 0.0 - - 10 - - - -
26/12:00am 17.0 S 17 23 1017.3 - 0.0 - - 10 - - - -
 
Date/Time
WST
Temp
°C
Wind Pressure Rain since
9am
mm
Weather Cloud Vis
km
Sea
Height
m
Swell
Dir  Spd
kts
Gust
kts
hPa Trend Height
m
Period
s
Dir
25/11:30pm 17.3 S 15 20 1017.5 - 0.0 - - 10 - - - -
25/11:00pm 17.3 S 15 21 1017.5 - 0.0 - - 10 - - - -
25/10:30pm 17.3 S 15 20 1017.5 - 0.0 - - 10 - - - -
25/10:00pm 17.5 S 17 22 1017.5 - 0.0 - - 10 - - - -
25/09:30pm 17.9 S 19 26 1017.3 - 0.0 - - 10 - - - -
25/09:00pm 18.3 S 19 25 1017.2 - 0.0 - Mostly clear 10 - - - -
25/08:30pm 18.6 S 19 26 1017.0 - 0.0 - Partly cloudy 10 - - - -
25/08:00pm 18.7 SSW 19 24 1016.6 - 0.0 - - 10 - - - -
25/07:30pm 18.7 S 18 23 1016.2 - 0.0 - - 10 - - - -
25/07:00pm 18.8 SSW 15 21 1015.9 - 0.0 - - 10 - - - -
25/06:30pm 18.5 SSW 14 19 1015.7 - 0.0 - Partly cloudy 10 - - - -
25/06:00pm 18.8 SW 15 20 1015.3 - 0.0 - - 10 - - - -
25/05:30pm 19.6 SSW 15 20 1015.1 - 0.0 - - 10 - - - -
25/05:00pm 19.7 SSW 16 20 1014.8 - 0.0 - - 10 - - - -
25/04:30pm 20.4 SSW 16 22 1014.7 - 0.0 - - 10 - - - -

Other Formats:

Comma delimited format used in spreadsheet applications
http://www.bom.gov.au/fwo/IDW60701/IDW60701.94300.axf

JavaScript Object Notation format (JSON) in row-major order
http://www.bom.gov.au/fwo/IDW60701/IDW60701.94300.json